sensor_id;sensor_type;location;lat;lon;timestamp;pressure;altitude;pressure_sealevel;temperature;humidity
64827;BME280;51265;53.972;12.286;2022-12-18T00:01:28;102171.84;;;-10.38;100.00
64827;BME280;51265;53.972;12.286;2022-12-18T00:03:55;102173.06;;;-10.42;100.00
64827;BME280;51265;53.972;12.286;2022-12-18T00:06:21;102172.06;;;-10.41;100.00
64827;BME280;51265;53.972;12.286;2022-12-18T00:08:48;102174.34;;;-10.37;100.00
64827;BME280;51265;53.972;12.286;2022-12-18T00:11:18;102173.13;;;-10.33;100.00
64827;BME280;51265;53.972;12.286;2022-12-18T00:13:45;102176.41;;;-10.29;100.00
64827;BME280;51265;53.972;12.286;2022-12-18T00:16:16;102170.56;;;-10.23;100.00
64827;BME280;51265;53.972;12.286;2022-12-18T00:18:44;102177.34;;;-10.19;100.00
64827;BME280;51265;53.972;12.286;2022-12-18T00:21:12;102189.53;;;-10.16;100.00
64827;BME280;51265;53.972;12.286;2022-12-18T00:23:38;102188.31;;;-10.12;100.00
64827;BME280;51265;53.972;12.286;2022-12-18T00:26:08;102192.31;;;-10.07;100.00
64827;BME280;51265;53.972;12.286;2022-12-18T00:28:35;102194.31;;;-9.99;100.00
64827;BME280;51265;53.972;12.286;2022-12-18T00:31:10;102193.97;;;-9.94;100.00
64827;BME280;51265;53.972;12.286;2022-12-18T00:33:36;102197.34;;;-9.92;100.00
64827;BME280;51265;53.972;12.286;2022-12-18T00:36:14;102189.34;;;-9.92;100.00
64827;BME280;51265;53.972;12.286;2022-12-18T00:38:40;102200.63;;;-9.89;100.00
64827;BME280;51265;53.972;12.286;2022-12-18T00:41:07;102199.38;;;-9.85;100.00
64827;BME280;51265;53.972;12.286;2022-12-18T00:43:35;102201.53;;;-9.79;100.00
64827;BME280;51265;53.972;12.286;2022-12-18T00:46:02;102200.97;;;-9.82;100.00
64827;BME280;51265;53.972;12.286;2022-12-18T00:48:27;102212.69;;;-9.73;100.00
64827;BME280;51265;53.972;12.286;2022-12-18T00:50:53;102215.91;;;-9.70;100.00
64827;BME280;51265;53.972;12.286;2022-12-18T00:53:19;102222.44;;;-9.63;100.00
64827;BME280;51265;53.972;12.286;2022-12-18T00:55:45;102224.41;;;-9.65;100.00
64827;BME280;51265;53.972;12.286;2022-12-18T00:58:13;102218.78;;;-9.62;100.00
64827;BME280;51265;53.972;12.286;2022-12-18T01:00:39;102218.28;;;-9.56;100.00
64827;BME280;51265;53.972;12.286;2022-12-18T01:03:05;102218.28;;;-9.56;100.00
64827;BME280;51265;53.972;12.286;2022-12-18T01:05:32;102215.16;;;-9.61;100.00
64827;BME280;51265;53.972;12.286;2022-12-18T01:07:58;102211.28;;;-9.57;100.00
64827;BME280;51265;53.972;12.286;2022-12-18T01:10:24;102221.16;;;-9.47;100.00
64827;BME280;51265;53.972;12.286;2022-12-18T01:12:50;102221.88;;;-9.45;100.00
64827;BME280;51265;53.972;12.286;2022-12-18T01:15:18;102221.41;;;-9.50;100.00
64827;BME280;51265;53.972;12.286;2022-12-18T01:17:58;102214.78;;;-9.56;100.00
64827;BME280;51265;53.972;12.286;2022-12-18T01:20:26;102204.97;;;-9.56;100.00
64827;BME280;51265;53.972;12.286;2022-12-18T01:22:52;102225.31;;;-9.55;100.00
64827;BME280;51265;53.972;12.286;2022-12-18T01:25:17;102223.88;;;-9.59;100.00
64827;BME280;51265;53.972;12.286;2022-12-18T01:27:43;102225.09;;;-9.63;100.00
64827;BME280;51265;53.972;12.286;2022-12-18T01:30:09;102220.69;;;-9.73;100.00
64827;BME280;51265;53.972;12.286;2022-12-18T01:32:35;102212.56;;;-9.83;100.00
64827;BME280;51265;53.972;12.286;2022-12-18T01:35:02;102214.75;;;-9.77;100.00
64827;BME280;51265;53.972;12.286;2022-12-18T01:37:28;102221.16;;;-9.80;100.00
64827;BME280;51265;53.972;12.286;2022-12-18T01:39:54;102216.81;;;-9.81;100.00
64827;BME280;51265;53.972;12.286;2022-12-18T01:42:20;102230.47;;;-9.74;100.00
64827;BME280;51265;53.972;12.286;2022-12-18T01:44:55;102237.53;;;-9.73;100.00
64827;BME280;51265;53.972;12.286;2022-12-18T01:47:32;102235.47;;;-9.69;100.00
64827;BME280;51265;53.972;12.286;2022-12-18T01:50:02;102243.56;;;-9.71;100.00
64827;BME280;51265;53.972;12.286;2022-12-18T01:52:31;102243.06;;;-9.65;100.00
64827;BME280;51265;53.972;12.286;2022-12-18T01:54:59;102243.19;;;-9.66;100.00
64827;BME280;51265;53.972;12.286;2022-12-18T01:57:27;102244.28;;;-9.69;100.00
64827;BME280;51265;53.972;12.286;2022-12-18T01:59:57;102245.63;;;-9.74;100.00
64827;BME280;51265;53.972;12.286;2022-12-18T02:02:26;102234.38;;;-9.78;100.00
64827;BME280;51265;53.972;12.286;2022-12-18T02:04:53;102232.28;;;-9.74;100.00
64827;BME280;51265;53.972;12.286;2022-12-18T02:12:50;102235.53;;;-9.60;100.00
64827;BME280;51265;53.972;12.286;2022-12-18T02:18:31;102243.78;;;-9.63;100.00
64827;BME280;51265;53.972;12.286;2022-12-18T02:21:00;102228.75;;;-9.64;100.00
64827;BME280;51265;53.972;12.286;2022-12-18T02:26:07;102219.53;;;-9.60;100.00
64827;BME280;51265;53.972;12.286;2022-12-18T02:28:51;102218.78;;;-9.62;100.00
64827;BME280;51265;53.972;12.286;2022-12-18T02:31:24;102211.19;;;-9.66;100.00
64827;BME280;51265;53.972;12.286;2022-12-18T02:33:54;102223.56;;;-9.65;100.00
64827;BME280;51265;53.972;12.286;2022-12-18T02:36:22;102221.25;;;-9.70;100.00
64827;BME280;51265;53.972;12.286;2022-12-18T02:38:50;102228.53;;;-9.72;100.00
64827;BME280;51265;53.972;12.286;2022-12-18T02:41:16;102223.81;;;-9.68;100.00
64827;BME280;51265;53.972;12.286;2022-12-18T02:43:48;102226.34;;;-9.67;100.00
64827;BME280;51265;53.972;12.286;2022-12-18T02:49:24;102234.22;;;-9.65;100.00
64827;BME280;51265;53.972;12.286;2022-12-18T03:01:06;102222.47;;;-9.74;100.00
64827;BME280;51265;53.972;12.286;2022-12-18T03:03:39;102203.81;;;-9.74;100.00
64827;BME280;51265;53.972;12.286;2022-12-18T03:06:25;102208.19;;;-9.73;100.00
64827;BME280;51265;53.972;12.286;2022-12-18T03:08:58;102207.47;;;-9.75;100.00
64827;BME280;51265;53.972;12.286;2022-12-18T03:11:27;102214.47;;;-9.74;100.00
64827;BME280;51265;53.972;12.286;2022-12-18T03:14:15;102222.22;;;-9.71;100.00
64827;BME280;51265;53.972;12.286;2022-12-18T03:16:43;102245.97;;;-9.68;100.00
64827;BME280;51265;53.972;12.286;2022-12-18T03:19:15;102245.25;;;-9.70;100.00
64827;BME280;51265;53.972;12.286;2022-12-18T03:21:47;102256.13;;;-9.62;100.00
64827;BME280;51265;53.972;12.286;2022-12-18T03:24:17;102251.66;;;-9.61;100.00
64827;BME280;51265;53.972;12.286;2022-12-18T03:26:47;102257.84;;;-9.61;100.00
64827;BME280;51265;53.972;12.286;2022-12-18T03:29:19;102257.50;;;-9.67;100.00
64827;BME280;51265;53.972;12.286;2022-12-18T03:31:52;102258.84;;;-9.73;100.00
64827;BME280;51265;53.972;12.286;2022-12-18T03:34:23;102260.84;;;-9.86;100.00
64827;BME280;51265;53.972;12.286;2022-12-18T03:36:53;102253.09;;;-9.89;100.00
64827;BME280;51265;53.972;12.286;2022-12-18T03:39:19;102258.28;;;-9.88;100.00
64827;BME280;51265;53.972;12.286;2022-12-18T03:42:10;102264.69;;;-9.79;100.00
64827;BME280;51265;53.972;12.286;2022-12-18T03:45:08;102266.53;;;-9.91;100.00
64827;BME280;51265;53.972;12.286;2022-12-18T03:48:01;102273.94;;;-9.94;100.00
64827;BME280;51265;53.972;12.286;2022-12-18T03:50:47;102270.31;;;-9.93;100.00
64827;BME280;51265;53.972;12.286;2022-12-18T03:55:50;102269.47;;;-9.94;100.00
64827;BME280;51265;53.972;12.286;2022-12-18T03:58:20;102272.97;;;-9.93;100.00
64827;BME280;51265;53.972;12.286;2022-12-18T04:00:58;102272.59;;;-10.00;100.00
64827;BME280;51265;53.972;12.286;2022-12-18T04:03:29;102276.25;;;-10.01;100.00
64827;BME280;51265;53.972;12.286;2022-12-18T04:05:58;102280.59;;;-10.00;100.00
64827;BME280;51265;53.972;12.286;2022-12-18T04:08:27;102283.88;;;-9.96;100.00
64827;BME280;51265;53.972;12.286;2022-12-18T04:11:03;102282.78;;;-9.94;100.00
64827;BME280;51265;53.972;12.286;2022-12-18T04:13:32;102286.16;;;-9.92;100.00
64827;BME280;51265;53.972;12.286;2022-12-18T04:16:01;102290.28;;;-9.99;100.00
64827;BME280;51265;53.972;12.286;2022-12-18T04:18:27;102285.94;;;-10.00;100.00
64827;BME280;51265;53.972;12.286;2022-12-18T04:20:54;102271.28;;;-10.06;100.00
64827;BME280;51265;53.972;12.286;2022-12-18T04:23:20;102280.03;;;-10.15;100.00
64827;BME280;51265;53.972;12.286;2022-12-18T04:25:47;102281.75;;;-10.25;100.00
64827;BME280;51265;53.972;12.286;2022-12-18T04:28:18;102293.91;;;-10.32;100.00
64827;BME280;51265;53.972;12.286;2022-12-18T04:30:44;102286.59;;;-10.41;100.00
64827;BME280;51265;53.972;12.286;2022-12-18T04:33:11;102294.13;;;-10.46;100.00
64827;BME280;51265;53.972;12.286;2022-12-18T04:35:39;102299.09;;;-10.42;100.00
64827;BME280;51265;53.972;12.286;2022-12-18T04:38:06;102291.00;;;-10.40;100.00
64827;BME280;51265;53.972;12.286;2022-12-18T04:40:32;102296.19;;;-10.39;100.00
64827;BME280;51265;53.972;12.286;2022-12-18T04:43:03;102285.66;;;-10.40;100.00
64827;BME280;51265;53.972;12.286;2022-12-18T04:45:32;102283.22;;;-10.55;100.00
64827;BME280;51265;53.972;12.286;2022-12-18T04:47:59;102276.66;;;-10.62;100.00
64827;BME280;51265;53.972;12.286;2022-12-18T04:50:26;102274.47;;;-10.79;100.00
64827;BME280;51265;53.972;12.286;2022-12-18T04:52:52;102261.41;;;-10.93;100.00
64827;BME280;51265;53.972;12.286;2022-12-18T04:55:18;102257.03;;;-11.06;100.00
64827;BME280;51265;53.972;12.286;2022-12-18T04:57:44;102244.81;;;-11.19;100.00
64827;BME280;51265;53.972;12.286;2022-12-18T05:00:11;102240.16;;;-11.29;100.00
64827;BME280;51265;53.972;12.286;2022-12-18T05:02:37;102239.56;;;-11.32;100.00
64827;BME280;51265;53.972;12.286;2022-12-18T05:05:03;102244.53;;;-11.27;100.00
64827;BME280;51265;53.972;12.286;2022-12-18T05:07:29;102248.41;;;-11.20;100.00
64827;BME280;51265;53.972;12.286;2022-12-18T05:09:55;102248.56;;;-11.11;100.00
64827;BME280;51265;53.972;12.286;2022-12-18T05:12:23;102253.63;;;-11.08;100.00
64827;BME280;51265;53.972;12.286;2022-12-18T05:14:49;102250.47;;;-11.13;100.00
64827;BME280;51265;53.972;12.286;2022-12-18T05:17:14;102257.25;;;-11.20;100.00
64827;BME280;51265;53.972;12.286;2022-12-18T05:19:40;102264.72;;;-11.25;100.00
64827;BME280;51265;53.972;12.286;2022-12-18T05:22:06;102270.78;;;-11.23;100.00
64827;BME280;51265;53.972;12.286;2022-12-18T05:24:35;102274.16;;;-11.21;100.00
64827;BME280;51265;53.972;12.286;2022-12-18T05:27:01;102281.91;;;-11.18;100.00
64827;BME280;51265;53.972;12.286;2022-12-18T05:29:27;102286.88;;;-11.13;100.00
64827;BME280;51265;53.972;12.286;2022-12-18T05:31:53;102289.91;;;-11.18;100.00
64827;BME280;51265;53.972;12.286;2022-12-18T05:34:18;102292.06;;;-11.23;100.00
64827;BME280;51265;53.972;12.286;2022-12-18T05:36:44;102297.16;;;-11.20;100.00
64827;BME280;51265;53.972;12.286;2022-12-18T05:39:10;102293.31;;;-11.16;100.00
64827;BME280;51265;53.972;12.286;2022-12-18T05:41:36;102297.31;;;-11.10;100.00
64827;BME280;51265;53.972;12.286;2022-12-18T05:44:02;102316.91;;;-11.00;100.00
64827;BME280;51265;53.972;12.286;2022-12-18T05:46:28;102330.84;;;-10.96;100.00
64827;BME280;51265;53.972;12.286;2022-12-18T05:48:53;102329.41;;;-10.89;100.00
64827;BME280;51265;53.972;12.286;2022-12-18T05:51:21;102329.78;;;-10.83;100.00
64827;BME280;51265;53.972;12.286;2022-12-18T05:53:47;102316.72;;;-10.74;100.00
64827;BME280;51265;53.972;12.286;2022-12-18T05:56:18;102304.03;;;-10.71;100.00
64827;BME280;51265;53.972;12.286;2022-12-18T05:58:45;102299.66;;;-10.72;100.00
64827;BME280;51265;53.972;12.286;2022-12-18T06:01:20;102295.19;;;-10.71;100.00
64827;BME280;51265;53.972;12.286;2022-12-18T06:03:47;102281.66;;;-10.68;100.00
64827;BME280;51265;53.972;12.286;2022-12-18T06:06:18;102290.97;;;-10.63;100.00
64827;BME280;51265;53.972;12.286;2022-12-18T06:08:45;102298.72;;;-10.60;100.00
64827;BME280;51265;53.972;12.286;2022-12-18T06:11:11;102302.09;;;-10.69;100.00
64827;BME280;51265;53.972;12.286;2022-12-18T06:13:37;102310.19;;;-10.70;100.00
64827;BME280;51265;53.972;12.286;2022-12-18T06:16:07;102305.75;;;-10.70;100.00
64827;BME280;51265;53.972;12.286;2022-12-18T06:18:34;102300.50;;;-10.71;100.00
64827;BME280;51265;53.972;12.286;2022-12-18T06:21:02;102308.50;;;-10.71;100.00
64827;BME280;51265;53.972;12.286;2022-12-18T06:23:28;102304.88;;;-10.70;100.00
64827;BME280;51265;53.972;12.286;2022-12-18T06:25:54;102295.44;;;-10.63;100.00
64827;BME280;51265;53.972;12.286;2022-12-18T06:28:20;102301.16;;;-10.57;100.00
64827;BME280;51265;53.972;12.286;2022-12-18T06:30:47;102296.91;;;-10.59;100.00
64827;BME280;51265;53.972;12.286;2022-12-18T06:33:14;102312.28;;;-10.51;100.00
64827;BME280;51265;53.972;12.286;2022-12-18T06:35:41;102313.97;;;-10.50;100.00
64827;BME280;51265;53.972;12.286;2022-12-18T06:38:07;102335.78;;;-10.34;100.00
64827;BME280;51265;53.972;12.286;2022-12-18T06:40:33;102336.25;;;-10.29;100.00
64827;BME280;51265;53.972;12.286;2022-12-18T06:42:59;102341.44;;;-10.16;100.00
64827;BME280;51265;53.972;12.286;2022-12-18T06:45:24;102349.78;;;-10.10;100.00
64827;BME280;51265;53.972;12.286;2022-12-18T06:47:50;102341.81;;;-10.10;100.00
64827;BME280;51265;53.972;12.286;2022-12-18T06:50:17;102344.69;;;-10.13;100.00
64827;BME280;51265;53.972;12.286;2022-12-18T06:52:42;102330.94;;;-10.29;100.00
64827;BME280;51265;53.972;12.286;2022-12-18T06:55:10;102323.78;;;-10.40;100.00
64827;BME280;51265;53.972;12.286;2022-12-18T06:57:37;102311.31;;;-10.50;100.00
64827;BME280;51265;53.972;12.286;2022-12-18T07:00:05;102312.75;;;-10.58;100.00
64827;BME280;51265;53.972;12.286;2022-12-18T07:02:31;102317.13;;;-10.57;100.00
64827;BME280;51265;53.972;12.286;2022-12-18T07:04:57;102334.06;;;-10.46;100.00
64827;BME280;51265;53.972;12.286;2022-12-18T07:07:24;102338.81;;;-10.27;100.00
64827;BME280;51265;53.972;12.286;2022-12-18T07:09:50;102337.22;;;-10.19;100.00
64827;BME280;51265;53.972;12.286;2022-12-18T07:12:16;102350.66;;;-10.09;100.00
64827;BME280;51265;53.972;12.286;2022-12-18T07:14:42;102345.78;;;-10.04;100.00
64827;BME280;51265;53.972;12.286;2022-12-18T07:17:08;102339.50;;;-10.14;100.00
64827;BME280;51265;53.972;12.286;2022-12-18T07:19:34;102346.16;;;-10.20;100.00
64827;BME280;51265;53.972;12.286;2022-12-18T07:21:59;102336.72;;;-10.24;100.00
64827;BME280;51265;53.972;12.286;2022-12-18T07:24:26;102339.19;;;-10.32;100.00
64827;BME280;51265;53.972;12.286;2022-12-18T07:26:51;102334.09;;;-10.35;100.00
64827;BME280;51265;53.972;12.286;2022-12-18T07:29:18;102338.91;;;-10.29;100.00
64827;BME280;51265;53.972;12.286;2022-12-18T07:31:44;102349.31;;;-10.15;100.00
64827;BME280;51265;53.972;12.286;2022-12-18T07:34:11;102364.56;;;-10.06;100.00
64827;BME280;51265;53.972;12.286;2022-12-18T07:36:37;102363.72;;;-9.84;100.00
64827;BME280;51265;53.972;12.286;2022-12-18T07:39:03;102368.19;;;-9.73;100.00
64827;BME280;51265;53.972;12.286;2022-12-18T07:41:29;102368.66;;;-9.68;100.00
64827;BME280;51265;53.972;12.286;2022-12-18T07:43:54;102376.88;;;-9.60;100.00
64827;BME280;51265;53.972;12.286;2022-12-18T07:46:21;102385.13;;;-9.51;100.00
64827;BME280;51265;53.972;12.286;2022-12-18T07:48:47;102386.34;;;-9.56;100.00
64827;BME280;51265;53.972;12.286;2022-12-18T07:51:12;102388.50;;;-9.49;100.00
64827;BME280;51265;53.972;12.286;2022-12-18T07:53:39;102400.38;;;-9.42;100.00
64827;BME280;51265;53.972;12.286;2022-12-18T07:56:10;102399.88;;;-9.36;100.00
64827;BME280;51265;53.972;12.286;2022-12-18T07:58:37;102398.78;;;-9.34;100.00
64827;BME280;51265;53.972;12.286;2022-12-18T08:01:08;102409.81;;;-9.27;100.00
64827;BME280;51265;53.972;12.286;2022-12-18T08:03:34;102421.91;;;-9.23;100.00
64827;BME280;51265;53.972;12.286;2022-12-18T08:06:01;102423.09;;;-9.16;100.00
64827;BME280;51265;53.972;12.286;2022-12-18T08:08:28;102437.19;;;-9.14;100.00
64827;BME280;51265;53.972;12.286;2022-12-18T08:10:54;102421.75;;;-9.10;100.00
64827;BME280;51265;53.972;12.286;2022-12-18T08:13:20;102411.47;;;-9.15;100.00
64827;BME280;51265;53.972;12.286;2022-12-18T08:15:46;102409.28;;;-9.21;100.00
64827;BME280;51265;53.972;12.286;2022-12-18T08:18:20;102417.75;;;-9.16;100.00
64827;BME280;51265;53.972;12.286;2022-12-18T08:20:46;102416.16;;;-9.07;100.00
64827;BME280;51265;53.972;12.286;2022-12-18T08:23:12;102429.59;;;-8.97;100.00
64827;BME280;51265;53.972;12.286;2022-12-18T08:25:37;102429.81;;;-8.89;100.00
64827;BME280;51265;53.972;12.286;2022-12-18T08:28:03;102432.69;;;-8.81;100.00
64827;BME280;51265;53.972;12.286;2022-12-18T08:30:29;102423.72;;;-8.80;100.00
64827;BME280;51265;53.972;12.286;2022-12-18T08:32:55;102443.31;;;-8.70;100.00
64827;BME280;51265;53.972;12.286;2022-12-18T08:35:20;102446.94;;;-8.60;100.00
64827;BME280;51265;53.972;12.286;2022-12-18T08:37:47;102449.47;;;-8.58;100.00
64827;BME280;51265;53.972;12.286;2022-12-18T08:40:12;102442.63;;;-8.51;100.00
64827;BME280;51265;53.972;12.286;2022-12-18T08:42:38;102450.50;;;-8.49;100.00
64827;BME280;51265;53.972;12.286;2022-12-18T08:45:23;102458.72;;;-8.41;100.00
64827;BME280;51265;53.972;12.286;2022-12-18T08:47:50;102462.56;;;-8.34;100.00
64827;BME280;51265;53.972;12.286;2022-12-18T08:50:16;102462.84;;;-8.37;100.00
64827;BME280;51265;53.972;12.286;2022-12-18T08:52:42;102462.97;;;-8.39;100.00
64827;BME280;51265;53.972;12.286;2022-12-18T08:55:08;102459.72;;;-8.42;100.00
64827;BME280;51265;53.972;12.286;2022-12-18T08:57:34;102462.84;;;-8.37;100.00
64827;BME280;51265;53.972;12.286;2022-12-18T09:00:00;102463.97;;;-8.40;100.00
64827;BME280;51265;53.972;12.286;2022-12-18T09:02:26;102448.44;;;-8.36;100.00
64827;BME280;51265;53.972;12.286;2022-12-18T09:04:52;102457.47;;;-8.37;100.00
64827;BME280;51265;53.972;12.286;2022-12-18T09:07:17;102454.53;;;-8.34;100.00
64827;BME280;51265;53.972;12.286;2022-12-18T09:09:43;102466.41;;;-8.27;100.00
64827;BME280;51265;53.972;12.286;2022-12-18T09:12:09;102473.56;;;-8.28;100.00
64827;BME280;51265;53.972;12.286;2022-12-18T09:14:35;102472.06;;;-8.20;100.00
64827;BME280;51265;53.972;12.286;2022-12-18T09:17:01;102470.97;;;-8.18;100.00
64827;BME280;51265;53.972;12.286;2022-12-18T09:19:37;102468.47;;;-8.10;100.00
64827;BME280;51265;53.972;12.286;2022-12-18T09:22:03;102479.38;;;-8.02;100.00
64827;BME280;51265;53.972;12.286;2022-12-18T09:24:29;102487.75;;;-7.85;100.00
64827;BME280;51265;53.972;12.286;2022-12-18T09:26:55;102487.94;;;-7.77;100.00
64827;BME280;51265;53.972;12.286;2022-12-18T09:29:21;102491.06;;;-7.72;100.00
64827;BME280;51265;53.972;12.286;2022-12-18T09:31:47;102486.47;;;-7.60;100.00
64827;BME280;51265;53.972;12.286;2022-12-18T09:34:15;102487.09;;;-7.47;100.00
64827;BME280;51265;53.972;12.286;2022-12-18T09:36:42;102488.09;;;-7.38;100.00
64827;BME280;51265;53.972;12.286;2022-12-18T09:39:08;102488.81;;;-7.36;100.00
64827;BME280;51265;53.972;12.286;2022-12-18T09:41:46;102486.13;;;-7.36;100.00
64827;BME280;51265;53.972;12.286;2022-12-18T09:44:36;102485.03;;;-7.24;100.00
64827;BME280;51265;53.972;12.286;2022-12-18T09:47:12;102494.66;;;-7.12;100.00
64827;BME280;51265;53.972;12.286;2022-12-18T09:49:44;102490.34;;;-6.93;100.00
64827;BME280;51265;53.972;12.286;2022-12-18T09:52:26;102498.69;;;-6.77;100.00
64827;BME280;51265;53.972;12.286;2022-12-18T09:54:58;102491.50;;;-6.67;100.00
64827;BME280;51265;53.972;12.286;2022-12-18T09:57:25;102489.97;;;-6.60;100.00
64827;BME280;51265;53.972;12.286;2022-12-18T10:00:15;102476.09;;;-6.65;100.00
64827;BME280;51265;53.972;12.286;2022-12-18T10:02:42;102475.00;;;-6.62;100.00
64827;BME280;51265;53.972;12.286;2022-12-18T10:05:13;102482.06;;;-6.52;100.00
64827;BME280;51265;53.972;12.286;2022-12-18T10:10:44;102478.94;;;-6.37;100.00
64827;BME280;51265;53.972;12.286;2022-12-18T10:16:03;102476.53;;;-6.40;100.00
64827;BME280;51265;53.972;12.286;2022-12-18T10:18:46;102470.19;;;-6.39;100.00
64827;BME280;51265;53.972;12.286;2022-12-18T10:22:00;102478.50;;;-6.33;100.00
64827;BME280;51265;53.972;12.286;2022-12-18T10:24:15;102478.91;;;-6.28;100.00
64827;BME280;51265;53.972;12.286;2022-12-18T10:26:43;102472.72;;;-6.18;100.00
64827;BME280;51265;53.972;12.286;2022-12-18T10:29:12;102471.84;;;-6.09;100.00
64827;BME280;51265;53.972;12.286;2022-12-18T10:31:38;102470.00;;;-6.09;100.00
64827;BME280;51265;53.972;12.286;2022-12-18T10:34:08;102472.94;;;-6.02;100.00
64827;BME280;51265;53.972;12.286;2022-12-18T10:36:34;102488.84;;;-5.91;100.00
64827;BME280;51265;53.972;12.286;2022-12-18T10:39:21;102481.34;;;-5.87;100.00
64827;BME280;51265;53.972;12.286;2022-12-18T10:41:52;102483.88;;;-5.86;100.00
64827;BME280;51265;53.972;12.286;2022-12-18T10:44:34;102481.63;;;-5.81;100.00
64827;BME280;51265;53.972;12.286;2022-12-18T10:47:05;102489.50;;;-5.69;100.00
64827;BME280;51265;53.972;12.286;2022-12-18T10:49:33;102499.34;;;-5.60;100.00
64827;BME280;51265;53.972;12.286;2022-12-18T10:52:21;102492.56;;;-5.55;100.00
64827;BME280;51265;53.972;12.286;2022-12-18T10:54:58;102493.56;;;-5.56;100.00
64827;BME280;51265;53.972;12.286;2022-12-18T10:57:31;102485.06;;;-5.61;100.00
64827;BME280;51265;53.972;12.286;2022-12-18T10:59:59;102484.00;;;-5.68;100.00
64827;BME280;51265;53.972;12.286;2022-12-18T11:02:34;102477.66;;;-5.77;100.00
64827;BME280;51265;53.972;12.286;2022-12-18T11:05:00;102475.38;;;-5.71;100.00
64827;BME280;51265;53.972;12.286;2022-12-18T11:07:47;102470.84;;;-5.71;100.00
64827;BME280;51265;53.972;12.286;2022-12-18T11:10:19;102476.50;;;-5.74;100.00
64827;BME280;51265;53.972;12.286;2022-12-18T11:12:46;102472.59;;;-5.80;100.00
64827;BME280;51265;53.972;12.286;2022-12-18T11:15:30;102472.03;;;-5.83;100.00
64827;BME280;51265;53.972;12.286;2022-12-18T11:17:56;102473.72;;;-5.82;100.00
64827;BME280;51265;53.972;12.286;2022-12-18T11:20:34;102465.25;;;-5.87;100.00
64827;BME280;51265;53.972;12.286;2022-12-18T11:23:05;102465.53;;;-5.90;100.00
64827;BME280;51265;53.972;12.286;2022-12-18T11:25:36;102470.91;;;-5.90;100.00
64827;BME280;51265;53.972;12.286;2022-12-18T11:28:05;102465.59;;;-6.00;100.00
64827;BME280;51265;53.972;12.286;2022-12-18T11:30:35;102468.13;;;-5.98;100.00
64827;BME280;51265;53.972;12.286;2022-12-18T11:33:31;102470.38;;;-5.94;100.00
64827;BME280;51265;53.972;12.286;2022-12-18T11:36:00;102470.41;;;-6.04;100.00
64827;BME280;51265;53.972;12.286;2022-12-18T11:38:35;102471.81;;;-5.99;100.00
64827;BME280;51265;53.972;12.286;2022-12-18T11:44:11;102476.06;;;-5.97;100.00
64827;BME280;51265;53.972;12.286;2022-12-18T11:46:46;102482.00;;;-5.93;100.00
64827;BME280;51265;53.972;12.286;2022-12-18T11:49:34;102491.22;;;-5.78;100.00
64827;BME280;51265;53.972;12.286;2022-12-18T11:52:14;102486.97;;;-5.71;100.00
64827;BME280;51265;53.972;12.286;2022-12-18T11:54:42;102485.28;;;-5.72;100.00
64827;BME280;51265;53.972;12.286;2022-12-18T11:57:12;102478.75;;;-5.69;100.00
64827;BME280;51265;53.972;12.286;2022-12-18T12:00:18;102463.50;;;-5.69;100.00
64827;BME280;51265;53.972;12.286;2022-12-18T12:03:05;102468.34;;;-5.72;100.00
64827;BME280;51265;53.972;12.286;2022-12-18T12:08:41;102460.41;;;-5.74;100.00
64827;BME280;51265;53.972;12.286;2022-12-18T12:16:51;102450.41;;;-5.82;100.00
64827;BME280;51265;53.972;12.286;2022-12-18T12:19:31;102449.63;;;-5.64;100.00
64827;BME280;51265;53.972;12.286;2022-12-18T12:25:05;102467.50;;;-5.18;100.00
64827;BME280;51265;53.972;12.286;2022-12-18T12:28:28;102466.81;;;-5.02;100.00
64827;BME280;51265;53.972;12.286;2022-12-18T12:39:47;102465.31;;;-4.69;100.00
64827;BME280;51265;53.972;12.286;2022-12-18T12:42:40;102457.88;;;-4.75;100.00
64827;BME280;51265;53.972;12.286;2022-12-18T12:45:33;102439.72;;;-5.09;100.00
64827;BME280;51265;53.972;12.286;2022-12-18T12:48:04;102435.09;;;-5.34;100.00
64827;BME280;51265;53.972;12.286;2022-12-18T12:50:34;102429.03;;;-5.64;100.00
64827;BME280;51265;53.972;12.286;2022-12-18T12:53:06;102428.31;;;-5.93;100.00
64827;BME280;51265;53.972;12.286;2022-12-18T12:55:34;102432.06;;;-6.14;100.00
64827;BME280;51265;53.972;12.286;2022-12-18T13:03:41;102426.19;;;-6.56;100.00
64827;BME280;51265;53.972;12.286;2022-12-18T13:06:16;102424.78;;;-6.70;100.00
64827;BME280;51265;53.972;12.286;2022-12-18T13:08:55;102420.00;;;-6.76;100.00
64827;BME280;51265;53.972;12.286;2022-12-18T13:11:42;102417.44;;;-6.78;100.00
64827;BME280;51265;53.972;12.286;2022-12-18T13:14:36;102406.59;;;-6.76;100.00
64827;BME280;51265;53.972;12.286;2022-12-18T13:19:44;102410.94;;;-6.65;100.00
64827;BME280;51265;53.972;12.286;2022-12-18T13:23:03;102414.19;;;-6.62;100.00
64827;BME280;51265;53.972;12.286;2022-12-18T13:41:23;102374.28;;;-7.04;100.00
64827;BME280;51265;53.972;12.286;2022-12-18T13:43:51;102367.94;;;-7.03;100.00
64827;BME280;51265;53.972;12.286;2022-12-18T13:46:44;102371.47;;;-6.92;100.00
64827;BME280;51265;53.972;12.286;2022-12-18T13:51:42;102352.59;;;-6.81;100.00
64827;BME280;51265;53.972;12.286;2022-12-18T13:54:34;102338.19;;;-6.80;100.00
64827;BME280;51265;53.972;12.286;2022-12-18T13:57:02;102339.88;;;-6.79;100.00
64827;BME280;51265;53.972;12.286;2022-12-18T13:59:35;102339.88;;;-6.79;100.00
64827;BME280;51265;53.972;12.286;2022-12-18T14:04:38;102335.94;;;-6.75;100.00
64827;BME280;51265;53.972;12.286;2022-12-18T14:07:06;102342.84;;;-6.72;100.00
64827;BME280;51265;53.972;12.286;2022-12-18T14:09:41;102345.78;;;-6.66;100.00